sensor_id;sensor_type;location;lat;lon;timestamp;temperature;humidity
52451;DHT22;38366;53.176;6.540;2023-02-10T00:01:13;2.30;99.90
52451;DHT22;38366;53.176;6.540;2023-02-10T00:03:39;3.00;99.90
52451;DHT22;38366;53.176;6.540;2023-02-10T00:06:06;2.80;99.90
52451;DHT22;38366;53.176;6.540;2023-02-10T00:08:33;1.30;99.90
52451;DHT22;38366;53.176;6.540;2023-02-10T00:11:00;1.30;99.90
52451;DHT22;38366;53.176;6.540;2023-02-10T00:13:28;1.30;99.90
52451;DHT22;38366;53.176;6.540;2023-02-10T00:15:54;1.30;99.90
52451;DHT22;38366;53.176;6.540;2023-02-10T00:18:20;1.30;99.90
52451;DHT22;38366;53.176;6.540;2023-02-10T00:20:46;1.30;99.90
52451;DHT22;38366;53.176;6.540;2023-02-10T00:23:12;1.30;99.90
52451;DHT22;38366;53.176;6.540;2023-02-10T00:25:37;1.40;99.90
52451;DHT22;38366;53.176;6.540;2023-02-10T00:28:03;1.30;99.90
52451;DHT22;38366;53.176;6.540;2023-02-10T00:30:30;1.30;99.90
52451;DHT22;38366;53.176;6.540;2023-02-10T00:32:56;3.20;99.90
52451;DHT22;38366;53.176;6.540;2023-02-10T00:35:21;2.40;99.90
52451;DHT22;38366;53.176;6.540;2023-02-10T00:37:47;1.50;99.90
52451;DHT22;38366;53.176;6.540;2023-02-10T00:40:13;1.30;99.90
52451;DHT22;38366;53.176;6.540;2023-02-10T00:42:39;1.30;99.90
52451;DHT22;38366;53.176;6.540;2023-02-10T00:45:05;1.30;99.90
52451;DHT22;38366;53.176;6.540;2023-02-10T00:47:30;1.30;99.90
52451;DHT22;38366;53.176;6.540;2023-02-10T00:49:56;1.20;99.90
52451;DHT22;38366;53.176;6.540;2023-02-10T00:52:22;1.20;99.90
52451;DHT22;38366;53.176;6.540;2023-02-10T00:54:48;2.30;99.90
52451;DHT22;38366;53.176;6.540;2023-02-10T00:57:14;1.20;99.90
52451;DHT22;38366;53.176;6.540;2023-02-10T00:59:40;1.20;99.90
52451;DHT22;38366;53.176;6.540;2023-02-10T01:02:06;2.50;99.90
52451;DHT22;38366;53.176;6.540;2023-02-10T01:04:33;1.50;99.90
52451;DHT22;38366;53.176;6.540;2023-02-10T01:06:58;1.10;99.90
52451;DHT22;38366;53.176;6.540;2023-02-10T01:09:24;1.20;99.90
52451;DHT22;38366;53.176;6.540;2023-02-10T01:11:50;1.10;99.90
52451;DHT22;38366;53.176;6.540;2023-02-10T01:14:16;1.10;99.90
52451;DHT22;38366;53.176;6.540;2023-02-10T01:16:41;1.10;99.90
52451;DHT22;38366;53.176;6.540;2023-02-10T01:19:08;1.50;99.90
52451;DHT22;38366;53.176;6.540;2023-02-10T01:21:34;2.40;99.90
52451;DHT22;38366;53.176;6.540;2023-02-10T01:24:02;2.60;99.90
52451;DHT22;38366;53.176;6.540;2023-02-10T01:26:28;-0.10;99.90
52451;DHT22;38366;53.176;6.540;2023-02-10T01:28:54;1.20;99.90
52451;DHT22;38366;53.176;6.540;2023-02-10T01:31:21;1.20;99.90
52451;DHT22;38366;53.176;6.540;2023-02-10T01:33:49;1.20;99.90
52451;DHT22;38366;53.176;6.540;2023-02-10T01:36:17;2.60;99.90
52451;DHT22;38366;53.176;6.540;2023-02-10T01:38:42;2.50;99.90
52451;DHT22;38366;53.176;6.540;2023-02-10T01:41:10;1.20;99.90
52451;DHT22;38366;53.176;6.540;2023-02-10T01:44:01;1.20;99.90
52451;DHT22;38366;53.176;6.540;2023-02-10T01:46:32;1.30;99.90
52451;DHT22;38366;53.176;6.540;2023-02-10T01:49:02;1.30;99.90
52451;DHT22;38366;53.176;6.540;2023-02-10T01:51:38;1.30;99.90
52451;DHT22;38366;53.176;6.540;2023-02-10T01:54:08;1.30;99.90
52451;DHT22;38366;53.176;6.540;2023-02-10T01:56:36;1.20;99.90
52451;DHT22;38366;53.176;6.540;2023-02-10T01:59:03;1.40;99.90
52451;DHT22;38366;53.176;6.540;2023-02-10T02:01:29;1.20;99.90
52451;DHT22;38366;53.176;6.540;2023-02-10T02:03:55;1.20;99.90
52451;DHT22;38366;53.176;6.540;2023-02-10T02:06:21;1.20;99.90
52451;DHT22;38366;53.176;6.540;2023-02-10T02:08:48;1.90;99.90
52451;DHT22;38366;53.176;6.540;2023-02-10T02:19:04;1.00;99.90
52451;DHT22;38366;53.176;6.540;2023-02-10T02:32:33;1.00;99.90
52451;DHT22;38366;53.176;6.540;2023-02-10T02:35:26;1.70;99.90
52451;DHT22;38366;53.176;6.540;2023-02-10T02:37:53;1.00;99.90
52451;DHT22;38366;53.176;6.540;2023-02-10T02:40:20;0.90;99.90
52451;DHT22;38366;53.176;6.540;2023-02-10T02:42:46;0.90;99.90
52451;DHT22;38366;53.176;6.540;2023-02-10T02:45:31;1.00;99.90
52451;DHT22;38366;53.176;6.540;2023-02-10T02:48:17;1.00;99.90
52451;DHT22;38366;53.176;6.540;2023-02-10T02:50:57;1.00;99.90
52451;DHT22;38366;53.176;6.540;2023-02-10T02:53:35;1.00;99.90
52451;DHT22;38366;53.176;6.540;2023-02-10T03:01:36;1.00;99.90
52451;DHT22;38366;53.176;6.540;2023-02-10T03:04:04;2.30;99.90
52451;DHT22;38366;53.176;6.540;2023-02-10T03:06:30;1.00;99.90
52451;DHT22;38366;53.176;6.540;2023-02-10T03:08:56;1.00;99.90
52451;DHT22;38366;53.176;6.540;2023-02-10T03:11:22;2.20;99.90
52451;DHT22;38366;53.176;6.540;2023-02-10T03:13:47;2.10;99.90
52451;DHT22;38366;53.176;6.540;2023-02-10T03:16:13;1.00;99.90
52451;DHT22;38366;53.176;6.540;2023-02-10T03:18:39;0.90;99.90
52451;DHT22;38366;53.176;6.540;2023-02-10T03:21:05;2.70;99.90
52451;DHT22;38366;53.176;6.540;2023-02-10T03:23:30;1.10;99.90
52451;DHT22;38366;53.176;6.540;2023-02-10T03:26:00;0.80;99.90
52451;DHT22;38366;53.176;6.540;2023-02-10T03:28:26;0.80;99.90
52451;DHT22;38366;53.176;6.540;2023-02-10T03:30:52;0.80;99.90
52451;DHT22;38366;53.176;6.540;2023-02-10T03:33:19;0.80;99.90
52451;DHT22;38366;53.176;6.540;2023-02-10T03:35:45;2.70;99.90
52451;DHT22;38366;53.176;6.540;2023-02-10T03:38:11;2.50;99.90
52451;DHT22;38366;53.176;6.540;2023-02-10T03:40:37;0.80;99.90
52451;DHT22;38366;53.176;6.540;2023-02-10T03:43:03;0.90;99.90
52451;DHT22;38366;53.176;6.540;2023-02-10T03:45:29;2.30;99.90
52451;DHT22;38366;53.176;6.540;2023-02-10T03:47:55;2.50;99.90
52451;DHT22;38366;53.176;6.540;2023-02-10T03:50:21;0.90;99.90
52451;DHT22;38366;53.176;6.540;2023-02-10T03:52:47;0.90;99.90
52451;DHT22;38366;53.176;6.540;2023-02-10T03:55:12;1.50;99.90
52451;DHT22;38366;53.176;6.540;2023-02-10T03:57:41;2.00;99.90
52451;DHT22;38366;53.176;6.540;2023-02-10T04:00:07;0.90;99.90
52451;DHT22;38366;53.176;6.540;2023-02-10T04:02:33;1.00;99.90
52451;DHT22;38366;53.176;6.540;2023-02-10T04:04:58;1.00;99.90
52451;DHT22;38366;53.176;6.540;2023-02-10T04:07:24;2.20;99.90
52451;DHT22;38366;53.176;6.540;2023-02-10T04:09:50;2.40;99.90
52451;DHT22;38366;53.176;6.540;2023-02-10T04:12:15;3.00;99.90
52451;DHT22;38366;53.176;6.540;2023-02-10T04:14:41;1.10;99.90
52451;DHT22;38366;53.176;6.540;2023-02-10T04:17:07;1.10;99.90
52451;DHT22;38366;53.176;6.540;2023-02-10T04:19:33;1.20;99.90
52451;DHT22;38366;53.176;6.540;2023-02-10T04:21:58;1.10;99.90
52451;DHT22;38366;53.176;6.540;2023-02-10T04:24:24;1.10;99.90
52451;DHT22;38366;53.176;6.540;2023-02-10T04:26:50;1.10;99.90
52451;DHT22;38366;53.176;6.540;2023-02-10T04:29:15;1.10;99.90
52451;DHT22;38366;53.176;6.540;2023-02-10T04:31:41;1.50;99.90
52451;DHT22;38366;53.176;6.540;2023-02-10T04:34:07;1.20;99.90
52451;DHT22;38366;53.176;6.540;2023-02-10T04:36:32;2.50;99.90
52451;DHT22;38366;53.176;6.540;2023-02-10T04:38:58;2.60;99.90
52451;DHT22;38366;53.176;6.540;2023-02-10T04:41:24;2.40;99.90
52451;DHT22;38366;53.176;6.540;2023-02-10T04:43:50;1.40;99.90
52451;DHT22;38366;53.176;6.540;2023-02-10T04:46:15;1.40;99.90
52451;DHT22;38366;53.176;6.540;2023-02-10T04:48:41;1.30;99.90
52451;DHT22;38366;53.176;6.540;2023-02-10T04:51:11;2.80;99.90
52451;DHT22;38366;53.176;6.540;2023-02-10T04:53:37;2.40;99.90
52451;DHT22;38366;53.176;6.540;2023-02-10T04:56:03;2.30;99.90
52451;DHT22;38366;53.176;6.540;2023-02-10T04:58:30;1.30;99.90
52451;DHT22;38366;53.176;6.540;2023-02-10T05:00:56;3.00;99.90
52451;DHT22;38366;53.176;6.540;2023-02-10T05:03:22;3.30;99.90
52451;DHT22;38366;53.176;6.540;2023-02-10T05:05:48;1.30;99.90
52451;DHT22;38366;53.176;6.540;2023-02-10T05:08:17;1.30;99.90
52451;DHT22;38366;53.176;6.540;2023-02-10T05:10:47;1.40;99.90
52451;DHT22;38366;53.176;6.540;2023-02-10T05:13:13;1.20;99.90
52451;DHT22;38366;53.176;6.540;2023-02-10T05:15:38;2.50;99.90
52451;DHT22;38366;53.176;6.540;2023-02-10T05:18:04;3.10;99.90
52451;DHT22;38366;53.176;6.540;2023-02-10T05:20:30;-0.40;99.90
52451;DHT22;38366;53.176;6.540;2023-02-10T05:22:55;3.00;99.90
52451;DHT22;38366;53.176;6.540;2023-02-10T05:25:21;1.20;99.90
52451;DHT22;38366;53.176;6.540;2023-02-10T05:27:47;2.80;99.90
52451;DHT22;38366;53.176;6.540;2023-02-10T05:30:13;1.20;99.90
52451;DHT22;38366;53.176;6.540;2023-02-10T05:32:40;1.20;99.90
52451;DHT22;38366;53.176;6.540;2023-02-10T05:35:06;1.30;99.90
52451;DHT22;38366;53.176;6.540;2023-02-10T05:37:32;1.20;99.90
52451;DHT22;38366;53.176;6.540;2023-02-10T05:39:57;1.50;99.90
52451;DHT22;38366;53.176;6.540;2023-02-10T05:42:23;2.00;99.90
52451;DHT22;38366;53.176;6.540;2023-02-10T05:44:49;1.30;99.90
52451;DHT22;38366;53.176;6.540;2023-02-10T05:47:14;1.30;99.90
52451;DHT22;38366;53.176;6.540;2023-02-10T05:49:40;1.30;99.90
52451;DHT22;38366;53.176;6.540;2023-02-10T05:52:06;1.40;99.90
52451;DHT22;38366;53.176;6.540;2023-02-10T05:54:34;1.60;99.90
52451;DHT22;38366;53.176;6.540;2023-02-10T05:57:00;1.60;99.90
52451;DHT22;38366;53.176;6.540;2023-02-10T05:59:26;3.30;99.90
52451;DHT22;38366;53.176;6.540;2023-02-10T06:01:52;1.50;99.90
52451;DHT22;38366;53.176;6.540;2023-02-10T06:04:18;3.00;99.90
52451;DHT22;38366;53.176;6.540;2023-02-10T06:06:43;1.70;99.90
52451;DHT22;38366;53.176;6.540;2023-02-10T06:09:09;1.60;99.90
52451;DHT22;38366;53.176;6.540;2023-02-10T06:11:35;2.90;99.90
52451;DHT22;38366;53.176;6.540;2023-02-10T06:14:01;3.30;99.90
52451;DHT22;38366;53.176;6.540;2023-02-10T06:16:26;3.00;99.90
52451;DHT22;38366;53.176;6.540;2023-02-10T06:18:52;2.80;99.90
52451;DHT22;38366;53.176;6.540;2023-02-10T06:21:18;1.70;99.90
52451;DHT22;38366;53.176;6.540;2023-02-10T06:23:44;1.70;99.90
52451;DHT22;38366;53.176;6.540;2023-02-10T06:26:10;1.70;99.90
52451;DHT22;38366;53.176;6.540;2023-02-10T06:28:36;1.70;99.90
52451;DHT22;38366;53.176;6.540;2023-02-10T06:31:02;1.70;99.90
52451;DHT22;38366;53.176;6.540;2023-02-10T06:33:28;1.70;99.90
52451;DHT22;38366;53.176;6.540;2023-02-10T06:35:54;1.70;99.90
52451;DHT22;38366;53.176;6.540;2023-02-10T06:38:20;3.20;99.90
52451;DHT22;38366;53.176;6.540;2023-02-10T06:40:46;1.70;99.90
52451;DHT22;38366;53.176;6.540;2023-02-10T06:43:11;1.90;99.90
52451;DHT22;38366;53.176;6.540;2023-02-10T06:45:37;1.70;99.90
52451;DHT22;38366;53.176;6.540;2023-02-10T06:48:03;3.30;99.90
52451;DHT22;38366;53.176;6.540;2023-02-10T06:50:29;1.80;99.90
52451;DHT22;38366;53.176;6.540;2023-02-10T06:52:55;1.70;99.90
52451;DHT22;38366;53.176;6.540;2023-02-10T06:55:21;1.80;99.90
52451;DHT22;38366;53.176;6.540;2023-02-10T06:57:47;1.80;99.90
52451;DHT22;38366;53.176;6.540;2023-02-10T07:00:14;1.90;99.90
52451;DHT22;38366;53.176;6.540;2023-02-10T07:02:40;1.90;99.90
52451;DHT22;38366;53.176;6.540;2023-02-10T07:05:07;1.90;99.90
52451;DHT22;38366;53.176;6.540;2023-02-10T07:07:37;1.90;99.90
52451;DHT22;38366;53.176;6.540;2023-02-10T07:10:04;2.10;99.90
52451;DHT22;38366;53.176;6.540;2023-02-10T07:12:30;1.90;99.90
52451;DHT22;38366;53.176;6.540;2023-02-10T07:14:55;1.90;99.90
52451;DHT22;38366;53.176;6.540;2023-02-10T07:17:21;2.80;99.90
52451;DHT22;38366;53.176;6.540;2023-02-10T07:19:47;2.00;99.90
52451;DHT22;38366;53.176;6.540;2023-02-10T07:22:13;2.20;99.90
52451;DHT22;38366;53.176;6.540;2023-02-10T07:24:38;2.00;99.90
52451;DHT22;38366;53.176;6.540;2023-02-10T07:27:04;2.10;99.90
52451;DHT22;38366;53.176;6.540;2023-02-10T07:29:30;2.10;99.90
52451;DHT22;38366;53.176;6.540;2023-02-10T07:31:56;2.10;99.90
52451;DHT22;38366;53.176;6.540;2023-02-10T07:34:26;2.30;99.90
52451;DHT22;38366;53.176;6.540;2023-02-10T07:36:52;2.20;99.90
52451;DHT22;38366;53.176;6.540;2023-02-10T07:39:22;3.50;99.90
52451;DHT22;38366;53.176;6.540;2023-02-10T07:41:48;2.90;99.90
52451;DHT22;38366;53.176;6.540;2023-02-10T07:44:14;2.50;99.90
52451;DHT22;38366;53.176;6.540;2023-02-10T07:46:40;2.50;99.90
52451;DHT22;38366;53.176;6.540;2023-02-10T07:49:05;4.20;99.90
52451;DHT22;38366;53.176;6.540;2023-02-10T07:51:31;2.60;99.90
52451;DHT22;38366;53.176;6.540;2023-02-10T07:53:57;3.20;99.90
52451;DHT22;38366;53.176;6.540;2023-02-10T07:56:22;2.80;99.90
52451;DHT22;38366;53.176;6.540;2023-02-10T07:58:48;3.90;99.90
52451;DHT22;38366;53.176;6.540;2023-02-10T08:01:14;3.30;99.90
52451;DHT22;38366;53.176;6.540;2023-02-10T08:03:42;3.30;99.90
52451;DHT22;38366;53.176;6.540;2023-02-10T08:06:08;3.30;99.90
52451;DHT22;38366;53.176;6.540;2023-02-10T08:08:34;3.30;99.90
52451;DHT22;38366;53.176;6.540;2023-02-10T08:11:03;3.30;99.90
52451;DHT22;38366;53.176;6.540;2023-02-10T08:13:29;3.30;99.90
52451;DHT22;38366;53.176;6.540;2023-02-10T08:15:55;3.70;99.90
52451;DHT22;38366;53.176;6.540;2023-02-10T08:18:21;3.30;99.90
52451;DHT22;38366;53.176;6.540;2023-02-10T08:20:47;3.30;99.90
52451;DHT22;38366;53.176;6.540;2023-02-10T08:23:17;3.40;99.90
52451;DHT22;38366;53.176;6.540;2023-02-10T08:25:43;4.60;99.90
52451;DHT22;38366;53.176;6.540;2023-02-10T08:28:09;3.40;99.90
52451;DHT22;38366;53.176;6.540;2023-02-10T08:30:35;3.50;99.90
52451;DHT22;38366;53.176;6.540;2023-02-10T08:33:01;3.40;99.90
52451;DHT22;38366;53.176;6.540;2023-02-10T08:35:26;4.10;99.90
52451;DHT22;38366;53.176;6.540;2023-02-10T08:37:52;3.40;99.90
52451;DHT22;38366;53.176;6.540;2023-02-10T08:40:19;3.50;99.90
52451;DHT22;38366;53.176;6.540;2023-02-10T08:42:45;3.60;99.90
52451;DHT22;38366;53.176;6.540;2023-02-10T08:45:10;3.60;99.90
52451;DHT22;38366;53.176;6.540;2023-02-10T08:47:36;4.80;99.90
52451;DHT22;38366;53.176;6.540;2023-02-10T08:50:03;4.90;99.90
52451;DHT22;38366;53.176;6.540;2023-02-10T08:52:28;3.90;99.90
52451;DHT22;38366;53.176;6.540;2023-02-10T08:54:54;4.50;99.90
52451;DHT22;38366;53.176;6.540;2023-02-10T08:57:20;4.10;99.90
52451;DHT22;38366;53.176;6.540;2023-02-10T08:59:46;4.50;99.90
52451;DHT22;38366;53.176;6.540;2023-02-10T09:02:12;4.10;99.90
52451;DHT22;38366;53.176;6.540;2023-02-10T09:04:38;4.10;99.90
52451;DHT22;38366;53.176;6.540;2023-02-10T09:07:04;4.10;99.90
52451;DHT22;38366;53.176;6.540;2023-02-10T09:09:30;4.20;99.90
52451;DHT22;38366;53.176;6.540;2023-02-10T09:11:56;4.50;99.90
52451;DHT22;38366;53.176;6.540;2023-02-10T09:14:22;5.70;99.90
52451;DHT22;38366;53.176;6.540;2023-02-10T09:16:48;5.70;99.90
52451;DHT22;38366;53.176;6.540;2023-02-10T09:19:13;6.20;99.90
52451;DHT22;38366;53.176;6.540;2023-02-10T09:21:39;6.60;99.90
52451;DHT22;38366;53.176;6.540;2023-02-10T09:24:05;7.00;99.90
52451;DHT22;38366;53.176;6.540;2023-02-10T09:26:31;7.40;99.90
52451;DHT22;38366;53.176;6.540;2023-02-10T09:28:56;7.80;99.90
52451;DHT22;38366;53.176;6.540;2023-02-10T09:31:23;8.40;99.90
52451;DHT22;38366;53.176;6.540;2023-02-10T09:33:49;8.80;99.90
52451;DHT22;38366;53.176;6.540;2023-02-10T09:36:17;9.30;99.90
52451;DHT22;38366;53.176;6.540;2023-02-10T09:38:43;9.50;99.90
52451;DHT22;38366;53.176;6.540;2023-02-10T09:54:30;10.90;99.90
52451;DHT22;38366;53.176;6.540;2023-02-10T09:57:04;10.70;99.90
52451;DHT22;38366;53.176;6.540;2023-02-10T09:59:32;10.60;99.90
52451;DHT22;38366;53.176;6.540;2023-02-10T10:02:02;10.50;99.90
52451;DHT22;38366;53.176;6.540;2023-02-10T10:04:33;10.50;99.90
52451;DHT22;38366;53.176;6.540;2023-02-10T10:07:25;10.30;99.90
52451;DHT22;38366;53.176;6.540;2023-02-10T10:10:30;10.60;99.90
52451;DHT22;38366;53.176;6.540;2023-02-10T10:12:57;10.90;99.90
52451;DHT22;38366;53.176;6.540;2023-02-10T10:15:29;11.20;99.90
52451;DHT22;38366;53.176;6.540;2023-02-10T10:18:22;11.30;99.90
52451;DHT22;38366;53.176;6.540;2023-02-10T10:21:00;11.60;99.90
52451;DHT22;38366;53.176;6.540;2023-02-10T10:26:11;12.00;99.90
52451;DHT22;38366;53.176;6.540;2023-02-10T10:31:30;12.00;99.90
52451;DHT22;38366;53.176;6.540;2023-02-10T10:34:12;12.10;99.90
52451;DHT22;38366;53.176;6.540;2023-02-10T10:36:44;12.20;99.90
52451;DHT22;38366;53.176;6.540;2023-02-10T10:41:51;12.40;99.90
52451;DHT22;38366;53.176;6.540;2023-02-10T10:44:18;12.30;99.90
52451;DHT22;38366;53.176;6.540;2023-02-10T10:46:48;12.40;99.90
52451;DHT22;38366;53.176;6.540;2023-02-10T10:49:15;12.50;99.90
52451;DHT22;38366;53.176;6.540;2023-02-10T10:51:41;12.50;99.90
52451;DHT22;38366;53.176;6.540;2023-02-10T10:54:14;12.60;99.90
52451;DHT22;38366;53.176;6.540;2023-02-10T10:57:00;12.60;99.90
52451;DHT22;38366;53.176;6.540;2023-02-10T10:59:33;12.50;99.90
52451;DHT22;38366;53.176;6.540;2023-02-10T11:02:11;12.40;99.90
52451;DHT22;38366;53.176;6.540;2023-02-10T11:04:36;12.10;99.90
52451;DHT22;38366;53.176;6.540;2023-02-10T11:07:11;11.90;99.90
52451;DHT22;38366;53.176;6.540;2023-02-10T11:09:49;11.50;99.90
52451;DHT22;38366;53.176;6.540;2023-02-10T11:12:31;11.30;99.90
52451;DHT22;38366;53.176;6.540;2023-02-10T11:14:59;11.50;99.90
52451;DHT22;38366;53.176;6.540;2023-02-10T11:22:42;12.30;99.90
52451;DHT22;38366;53.176;6.540;2023-02-10T11:25:31;12.50;99.90
52451;DHT22;38366;53.176;6.540;2023-02-10T11:27:58;13.10;99.90
52451;DHT22;38366;53.176;6.540;2023-02-10T11:30:30;13.30;99.90
52451;DHT22;38366;53.176;6.540;2023-02-10T11:32:56;13.40;99.90
52451;DHT22;38366;53.176;6.540;2023-02-10T11:35:22;13.40;99.90
52451;DHT22;38366;53.176;6.540;2023-02-10T11:38:02;13.40;99.90
52451;DHT22;38366;53.176;6.540;2023-02-10T11:40:59;13.90;99.90
52451;DHT22;38366;53.176;6.540;2023-02-10T11:43:41;14.00;99.90
52451;DHT22;38366;53.176;6.540;2023-02-10T11:46:21;13.60;99.90
52451;DHT22;38366;53.176;6.540;2023-02-10T11:49:03;13.50;99.90
52451;DHT22;38366;53.176;6.540;2023-02-10T11:51:31;13.70;99.90
52451;DHT22;38366;53.176;6.540;2023-02-10T11:53:57;13.80;99.90
52451;DHT22;38366;53.176;6.540;2023-02-10T11:56:51;13.80;99.90
52451;DHT22;38366;53.176;6.540;2023-02-10T12:10:46;12.50;99.90
52451;DHT22;38366;53.176;6.540;2023-02-10T12:26:53;12.60;99.90
52451;DHT22;38366;53.176;6.540;2023-02-10T12:32:36;12.80;99.90
52451;DHT22;38366;53.176;6.540;2023-02-10T12:35:35;12.70;99.90
52451;DHT22;38366;53.176;6.540;2023-02-10T12:40:52;12.50;99.90
52451;DHT22;38366;53.176;6.540;2023-02-10T12:54:17;13.20;99.90
52451;DHT22;38366;53.176;6.540;2023-02-10T12:56:45;13.50;99.90
52451;DHT22;38366;53.176;6.540;2023-02-10T12:59:23;13.70;99.90
52451;DHT22;38366;53.176;6.540;2023-02-10T13:01:59;13.70;99.90
52451;DHT22;38366;53.176;6.540;2023-02-10T13:04:27;13.60;99.90
52451;DHT22;38366;53.176;6.540;2023-02-10T13:07:00;13.40;99.90
52451;DHT22;38366;53.176;6.540;2023-02-10T13:09:44;13.40;99.90
52451;DHT22;38366;53.176;6.540;2023-02-10T13:14:49;12.80;99.90
52451;DHT22;38366;53.176;6.540;2023-02-10T13:17:16;12.40;99.90
52451;DHT22;38366;53.176;6.540;2023-02-10T13:20:00;12.20;99.90
52451;DHT22;38366;53.176;6.540;2023-02-10T13:22:33;12.00;99.90
52451;DHT22;38366;53.176;6.540;2023-02-10T13:25:07;11.80;99.90
52451;DHT22;38366;53.176;6.540;2023-02-10T13:32:57;11.40;99.90
52451;DHT22;38366;53.176;6.540;2023-02-10T13:35:27;11.10;99.90
52451;DHT22;38366;53.176;6.540;2023-02-10T13:37:57;10.90;99.90
52451;DHT22;38366;53.176;6.540;2023-02-10T13:40:28;10.80;99.90
52451;DHT22;38366;53.176;6.540;2023-02-10T13:43:01;10.80;99.90
52451;DHT22;38366;53.176;6.540;2023-02-10T13:45:32;10.80;99.90
52451;DHT22;38366;53.176;6.540;2023-02-10T13:48:01;10.80;99.90
52451;DHT22;38366;53.176;6.540;2023-02-10T13:50:31;10.70;99.90
52451;DHT22;38366;53.176;6.540;2023-02-10T13:53:01;10.70;99.90
52451;DHT22;38366;53.176;6.540;2023-02-10T13:55:40;10.50;99.90
52451;DHT22;38366;53.176;6.540;2023-02-10T14:00:47;9.40;99.90
52451;DHT22;38366;53.176;6.540;2023-02-10T14:06:07;10.50;99.90
52451;DHT22;38366;53.176;6.540;2023-02-10T14:08:37;10.40;99.90
52451;DHT22;38366;53.176;6.540;2023-02-10T14:11:38;10.40;99.90
52451;DHT22;38366;53.176;6.540;2023-02-10T14:16:50;10.30;99.90
52451;DHT22;38366;53.176;6.540;2023-02-10T14:19:31;10.30;99.90
52451;DHT22;38366;53.176;6.540;2023-02-10T14:21:59;10.30;99.90
52451;DHT22;38366;53.176;6.540;2023-02-10T14:24:30;10.30;99.90
52451;DHT22;38366;53.176;6.540;2023-02-10T14:27:00;10.20;99.90
52451;DHT22;38366;53.176;6.540;2023-02-10T14:29:28;10.10;99.90
52451;DHT22;38366;53.176;6.540;2023-02-10T14:32:01;10.00;99.90
52451;DHT22;38366;53.176;6.540;2023-02-10T14:34:34;9.90;99.90
52451;DHT22;38366;53.176;6.540;2023-02-10T14:37:16;9.80;99.90
52451;DHT22;38366;53.176;6.540;2023-02-10T14:39:54;9.70;99.90
52451;DHT22;38366;53.176;6.540;2023-02-10T14:42:21;9.60;99.90
52451;DHT22;38366;53.176;6.540;2023-02-10T14:44:50;9.60;99.90
52451;DHT22;38366;53.176;6.540;2023-02-10T14:47:20;9.60;99.90
52451;DHT22;38366;53.176;6.540;2023-02-10T14:49:52;9.40;99.90
52451;DHT22;38366;53.176;6.540;2023-02-10T14:52:48;9.30;99.90
52451;DHT22;38366;53.176;6.540;2023-02-10T14:55:29;9.30;99.90
52451;DHT22;38366;53.176;6.540;2023-02-10T14:58:11;9.20;99.90
52451;DHT22;38366;53.176;6.540;2023-02-10T15:00:39;9.10;99.90
52451;DHT22;38366;53.176;6.540;2023-02-10T15:03:06;9.10;99.90
52451;DHT22;38366;53.176;6.540;2023-02-10T15:05:38;9.00;99.90
52451;DHT22;38366;53.176;6.540;2023-02-10T15:08:07;9.00;99.90
52451;DHT22;38366;53.176;6.540;2023-02-10T15:10:44;8.90;99.90
52451;DHT22;38366;53.176;6.540;2023-02-10T15:13:18;8.90;99.90
52451;DHT22;38366;53.176;6.540;2023-02-10T15:15:48;8.80;99.90
52451;DHT22;38366;53.176;6.540;2023-02-10T15:18:30;8.70;99.90
52451;DHT22;38366;53.176;6.540;2023-02-10T15:21:00;8.70;99.90
52451;DHT22;38366;53.176;6.540;2023-02-10T15:23:26;8.50;99.90
52451;DHT22;38366;53.176;6.540;2023-02-10T15:26:13;8.50;99.90
52451;DHT22;38366;53.176;6.540;2023-02-10T15:28:41;8.40;99.90
52451;DHT22;38366;53.176;6.540;2023-02-10T15:31:22;8.40;99.90
52451;DHT22;38366;53.176;6.540;2023-02-10T15:33:54;8.40;99.90
52451;DHT22;38366;53.176;6.540;2023-02-10T15:36:21;8.40;99.90
52451;DHT22;38366;53.176;6.540;2023-02-10T15:47:35;8.10;99.90
52451;DHT22;38366;53.176;6.540;2023-02-10T15:49:38;8.20;99.90
52451;DHT22;38366;53.176;6.540;2023-02-10T15:52:04;8.10;99.90
52451;DHT22;38366;53.176;6.540;2023-02-10T15:54:30;8.00;99.90
52451;DHT22;38366;53.176;6.540;2023-02-10T15:57:02;8.00;99.90
52451;DHT22;38366;53.176;6.540;2023-02-10T15:59:28;7.90;99.90
52451;DHT22;38366;53.176;6.540;2023-02-10T16:01:55;7.80;99.90
52451;DHT22;38366;53.176;6.540;2023-02-10T16:04:22;7.80;99.90
52451;DHT22;38366;53.176;6.540;2023-02-10T16:06:48;7.70;99.90
52451;DHT22;38366;53.176;6.540;2023-02-10T16:09:14;7.70;99.90
52451;DHT22;38366;53.176;6.540;2023-02-10T16:11:40;7.70;99.90
52451;DHT22;38366;53.176;6.540;2023-02-10T16:14:05;7.50;99.90
52451;DHT22;38366;53.176;6.540;2023-02-10T16:16:31;7.50;99.90
52451;DHT22;38366;53.176;6.540;2023-02-10T16:18:57;7.50;99.90
52451;DHT22;38366;53.176;6.540;2023-02-10T16:21:23;7.50;99.90
52451;DHT22;38366;53.176;6.540;2023-02-10T16:23:49;7.60;99.90
52451;DHT22;38366;53.176;6.540;2023-02-10T16:26:21;7.50;99.90
52451;DHT22;38366;53.176;6.540;2023-02-10T16:28:49;7.60;99.90
52451;DHT22;38366;53.176;6.540;2023-02-10T16:31:15;7.60;99.90
52451;DHT22;38366;53.176;6.540;2023-02-10T16:33:44;7.50;99.90
52451;DHT22;38366;53.176;6.540;2023-02-10T16:36:13;7.50;99.90
52451;DHT22;38366;53.176;6.540;2023-02-10T16:38:39;7.50;99.90
52451;DHT22;38366;53.176;6.540;2023-02-10T16:41:05;7.50;99.90
52451;DHT22;38366;53.176;6.540;2023-02-10T16:43:30;7.40;99.90
52451;DHT22;38366;53.176;6.540;2023-02-10T16:45:56;7.40;99.90
52451;DHT22;38366;53.176;6.540;2023-02-10T16:48:22;7.40;99.90
52451;DHT22;38366;53.176;6.540;2023-02-10T16:50:48;7.20;99.90
52451;DHT22;38366;53.176;6.540;2023-02-10T16:53:16;6.90;99.90
52451;DHT22;38366;53.176;6.540;2023-02-10T16:55:43;7.00;99.90
52451;DHT22;38366;53.176;6.540;2023-02-10T16:58:16;7.00;99.90
52451;DHT22;38366;53.176;6.540;2023-02-10T17:00:42;6.90;99.90
52451;DHT22;38366;53.176;6.540;2023-02-10T17:03:09;6.80;99.90
52451;DHT22;38366;53.176;6.540;2023-02-10T17:05:35;6.70;99.90
52451;DHT22;38366;53.176;6.540;2023-02-10T17:08:03;6.70;99.90
52451;DHT22;38366;53.176;6.540;2023-02-10T17:10:30;6.80;99.90
52451;DHT22;38366;53.176;6.540;2023-02-10T17:12:57;6.70;99.90
52451;DHT22;38366;53.176;6.540;2023-02-10T17:15:23;6.70;99.90
52451;DHT22;38366;53.176;6.540;2023-02-10T17:17:49;6.60;99.90
52451;DHT22;38366;53.176;6.540;2023-02-10T17:20:29;6.60;99.90
52451;DHT22;38366;53.176;6.540;2023-02-10T17:22:55;6.60;99.90
52451;DHT22;38366;53.176;6.540;2023-02-10T17:25:22;6.60;99.90
52451;DHT22;38366;53.176;6.540;2023-02-10T17:27:50;6.60;99.90
52451;DHT22;38366;53.176;6.540;2023-02-10T17:30:18;6.60;99.90
52451;DHT22;38366;53.176;6.540;2023-02-10T17:32:45;6.70;99.90
52451;DHT22;38366;53.176;6.540;2023-02-10T17:35:13;6.90;99.90
52451;DHT22;38366;53.176;6.540;2023-02-10T17:37:39;6.80;99.90
52451;DHT22;38366;53.176;6.540;2023-02-10T17:40:05;6.80;99.90
52451;DHT22;38366;53.176;6.540;2023-02-10T17:42:50;6.70;99.90
52451;DHT22;38366;53.176;6.540;2023-02-10T17:45:16;6.80;99.90
52451;DHT22;38366;53.176;6.540;2023-02-10T17:47:43;6.80;99.90
52451;DHT22;38366;53.176;6.540;2023-02-10T17:50:12;6.80;99.90